sensor_id;sensor_type;location;lat;lon;timestamp;P1;durP1;ratioP1;P2;durP2;ratioP2
74810;SDS011;63340;48.404;-4.506;2023-02-28T00:01:29;2.00;;;2.00;;
74810;SDS011;63340;48.404;-4.506;2023-02-28T00:03:59;4.00;;;1.00;;
74810;SDS011;63340;48.404;-4.506;2023-02-28T00:06:25;4.00;;;2.00;;
74810;SDS011;63340;48.404;-4.506;2023-02-28T00:08:52;1.00;;;1.00;;
74810;SDS011;63340;48.404;-4.506;2023-02-28T00:11:24;2.00;;;1.00;;
74810;SDS011;63340;48.404;-4.506;2023-02-28T00:13:49;2.00;;;2.00;;
74810;SDS011;63340;48.404;-4.506;2023-02-28T00:16:17;2.00;;;2.00;;
74810;SDS011;63340;48.404;-4.506;2023-02-28T00:18:45;2.00;;;2.00;;
74810;SDS011;63340;48.404;-4.506;2023-02-28T00:21:12;2.00;;;2.00;;
74810;SDS011;63340;48.404;-4.506;2023-02-28T00:23:37;1.75;;;1.75;;
74810;SDS011;63340;48.404;-4.506;2023-02-28T00:26:03;1.00;;;1.00;;
74810;SDS011;63340;48.404;-4.506;2023-02-28T00:28:29;2.00;;;1.75;;
74810;SDS011;63340;48.404;-4.506;2023-02-28T00:37:38;2.00;;;2.00;;
74810;SDS011;63340;48.404;-4.506;2023-02-28T00:40:04;1.75;;;1.75;;
74810;SDS011;63340;48.404;-4.506;2023-02-28T00:42:31;3.00;;;3.00;;
74810;SDS011;63340;48.404;-4.506;2023-02-28T00:44:57;2.00;;;2.00;;
74810;SDS011;63340;48.404;-4.506;2023-02-28T00:47:22;3.00;;;2.50;;
74810;SDS011;63340;48.404;-4.506;2023-02-28T00:49:48;3.50;;;3.50;;
74810;SDS011;63340;48.404;-4.506;2023-02-28T00:52:13;3.00;;;3.00;;
74810;SDS011;63340;48.404;-4.506;2023-02-28T00:54:39;5.50;;;3.25;;
74810;SDS011;63340;48.404;-4.506;2023-02-28T00:57:04;5.00;;;3.00;;
74810;SDS011;63340;48.404;-4.506;2023-02-28T00:59:30;3.25;;;3.25;;
74810;SDS011;63340;48.404;-4.506;2023-02-28T01:01:55;3.50;;;3.50;;
74810;SDS011;63340;48.404;-4.506;2023-02-28T01:04:21;1.50;;;1.50;;
74810;SDS011;63340;48.404;-4.506;2023-02-28T01:06:47;2.00;;;2.00;;
74810;SDS011;63340;48.404;-4.506;2023-02-28T01:09:12;1.00;;;1.00;;
74810;SDS011;63340;48.404;-4.506;2023-02-28T01:11:38;3.00;;;2.00;;
74810;SDS011;63340;48.404;-4.506;2023-02-28T01:14:05;2.00;;;2.00;;
74810;SDS011;63340;48.404;-4.506;2023-02-28T01:16:31;3.25;;;2.00;;
74810;SDS011;63340;48.404;-4.506;2023-02-28T01:18:56;2.50;;;2.00;;
74810;SDS011;63340;48.404;-4.506;2023-02-28T01:21:22;2.00;;;2.00;;
74810;SDS011;63340;48.404;-4.506;2023-02-28T01:23:48;3.00;;;2.00;;
74810;SDS011;63340;48.404;-4.506;2023-02-28T01:26:15;1.75;;;1.75;;
74810;SDS011;63340;48.404;-4.506;2023-02-28T01:28:45;2.75;;;2.00;;
74810;SDS011;63340;48.404;-4.506;2023-02-28T01:31:11;1.75;;;1.25;;
74810;SDS011;63340;48.404;-4.506;2023-02-28T01:33:37;3.00;;;3.00;;
74810;SDS011;63340;48.404;-4.506;2023-02-28T01:36:05;3.75;;;2.75;;
74810;SDS011;63340;48.404;-4.506;2023-02-28T01:38:32;3.00;;;3.00;;
74810;SDS011;63340;48.404;-4.506;2023-02-28T01:40:59;4.00;;;3.50;;
74810;SDS011;63340;48.404;-4.506;2023-02-28T01:43:26;3.75;;;3.00;;
74810;SDS011;63340;48.404;-4.506;2023-02-28T01:45:53;3.25;;;2.00;;
74810;SDS011;63340;48.404;-4.506;2023-02-28T01:48:29;4.00;;;4.00;;
74810;SDS011;63340;48.404;-4.506;2023-02-28T01:51:00;2.75;;;2.00;;
74810;SDS011;63340;48.404;-4.506;2023-02-28T01:53:35;4.00;;;3.00;;
74810;SDS011;63340;48.404;-4.506;2023-02-28T01:56:06;3.25;;;2.50;;
74810;SDS011;63340;48.404;-4.506;2023-02-28T01:58:34;3.00;;;1.75;;
74810;SDS011;63340;48.404;-4.506;2023-02-28T02:01:01;4.00;;;4.00;;
74810;SDS011;63340;48.404;-4.506;2023-02-28T02:03:28;3.00;;;3.00;;
74810;SDS011;63340;48.404;-4.506;2023-02-28T02:05:54;4.75;;;4.00;;
74810;SDS011;63340;48.404;-4.506;2023-02-28T02:08:21;3.00;;;3.00;;
74810;SDS011;63340;48.404;-4.506;2023-02-28T02:10:59;2.00;;;2.00;;
74810;SDS011;63340;48.404;-4.506;2023-02-28T02:13:37;4.25;;;2.75;;
74810;SDS011;63340;48.404;-4.506;2023-02-28T02:36:27;3.00;;;3.00;;
74810;SDS011;63340;48.404;-4.506;2023-02-28T02:47:11;4.00;;;4.00;;
74810;SDS011;63340;48.404;-4.506;2023-02-28T02:49:42;2.00;;;2.00;;
74810;SDS011;63340;48.404;-4.506;2023-02-28T02:52:12;3.00;;;3.00;;
74810;SDS011;63340;48.404;-4.506;2023-02-28T02:54:41;6.25;;;4.00;;
74810;SDS011;63340;48.404;-4.506;2023-02-28T02:57:15;4.75;;;3.00;;
74810;SDS011;63340;48.404;-4.506;2023-02-28T02:59:48;3.00;;;2.50;;
74810;SDS011;63340;48.404;-4.506;2023-02-28T03:02:16;3.00;;;2.75;;
74810;SDS011;63340;48.404;-4.506;2023-02-28T03:04:45;2.25;;;1.00;;
74810;SDS011;63340;48.404;-4.506;2023-02-28T03:07:15;3.25;;;3.25;;
74810;SDS011;63340;48.404;-4.506;2023-02-28T03:09:49;2.00;;;2.00;;
74810;SDS011;63340;48.404;-4.506;2023-02-28T03:12:17;2.00;;;1.25;;
74810;SDS011;63340;48.404;-4.506;2023-02-28T03:17:47;4.00;;;3.00;;
74810;SDS011;63340;48.404;-4.506;2023-02-28T03:25:38;0.00;;;0.00;;
74810;SDS011;63340;48.404;-4.506;2023-02-28T03:28:41;3.00;;;2.00;;
74810;SDS011;63340;48.404;-4.506;2023-02-28T03:31:19;2.00;;;2.00;;
74810;SDS011;63340;48.404;-4.506;2023-02-28T03:33:51;3.00;;;3.00;;
74810;SDS011;63340;48.404;-4.506;2023-02-28T03:36:27;2.00;;;2.00;;
74810;SDS011;63340;48.404;-4.506;2023-02-28T03:39:04;1.00;;;1.00;;
74810;SDS011;63340;48.404;-4.506;2023-02-28T03:42:17;3.00;;;2.00;;
74810;SDS011;63340;48.404;-4.506;2023-02-28T03:44:27;2.50;;;1.25;;
74810;SDS011;63340;48.404;-4.506;2023-02-28T03:47:12;3.00;;;3.00;;
74810;SDS011;63340;48.404;-4.506;2023-02-28T03:49:49;3.25;;;2.25;;
74810;SDS011;63340;48.404;-4.506;2023-02-28T03:52:19;2.75;;;2.00;;
74810;SDS011;63340;48.404;-4.506;2023-02-28T03:54:50;1.00;;;1.00;;
74810;SDS011;63340;48.404;-4.506;2023-02-28T03:57:27;1.50;;;1.00;;
74810;SDS011;63340;48.404;-4.506;2023-02-28T04:00:08;1.00;;;0.25;;
74810;SDS011;63340;48.404;-4.506;2023-02-28T04:02:41;1.25;;;1.25;;
74810;SDS011;63340;48.404;-4.506;2023-02-28T04:05:07;1.75;;;1.75;;
74810;SDS011;63340;48.404;-4.506;2023-02-28T04:07:33;2.00;;;1.00;;
74810;SDS011;63340;48.404;-4.506;2023-02-28T04:09:59;3.25;;;3.00;;
74810;SDS011;63340;48.404;-4.506;2023-02-28T04:12:24;1.00;;;1.00;;
74810;SDS011;63340;48.404;-4.506;2023-02-28T04:14:50;1.25;;;1.00;;
74810;SDS011;63340;48.404;-4.506;2023-02-28T04:17:16;3.00;;;2.00;;
74810;SDS011;63340;48.404;-4.506;2023-02-28T04:19:42;2.00;;;1.00;;
74810;SDS011;63340;48.404;-4.506;2023-02-28T04:22:08;2.00;;;2.00;;
74810;SDS011;63340;48.404;-4.506;2023-02-28T04:24:35;1.00;;;1.00;;
74810;SDS011;63340;48.404;-4.506;2023-02-28T04:27:01;2.00;;;1.00;;
74810;SDS011;63340;48.404;-4.506;2023-02-28T04:29:30;2.00;;;2.00;;
74810;SDS011;63340;48.404;-4.506;2023-02-28T04:32:00;1.50;;;1.50;;
74810;SDS011;63340;48.404;-4.506;2023-02-28T04:34:27;2.00;;;2.00;;
74810;SDS011;63340;48.404;-4.506;2023-02-28T04:36:54;2.00;;;2.00;;
74810;SDS011;63340;48.404;-4.506;2023-02-28T04:39:21;2.25;;;0.25;;
74810;SDS011;63340;48.404;-4.506;2023-02-28T04:41:48;2.25;;;2.00;;
74810;SDS011;63340;48.404;-4.506;2023-02-28T04:44:14;0.75;;;0.00;;
74810;SDS011;63340;48.404;-4.506;2023-02-28T04:46:41;3.25;;;3.25;;
74810;SDS011;63340;48.404;-4.506;2023-02-28T04:49:08;1.25;;;1.25;;
74810;SDS011;63340;48.404;-4.506;2023-02-28T04:51:35;2.50;;;2.50;;
74810;SDS011;63340;48.404;-4.506;2023-02-28T04:54:01;3.50;;;1.00;;
74810;SDS011;63340;48.404;-4.506;2023-02-28T04:56:27;2.00;;;1.00;;
74810;SDS011;63340;48.404;-4.506;2023-02-28T04:58:52;2.50;;;2.00;;
74810;SDS011;63340;48.404;-4.506;2023-02-28T05:01:21;2.00;;;2.00;;
74810;SDS011;63340;48.404;-4.506;2023-02-28T05:03:50;5.50;;;3.00;;
74810;SDS011;63340;48.404;-4.506;2023-02-28T05:06:17;1.00;;;1.00;;
74810;SDS011;63340;48.404;-4.506;2023-02-28T05:08:44;3.00;;;2.00;;
74810;SDS011;63340;48.404;-4.506;2023-02-28T05:11:14;2.00;;;2.00;;
74810;SDS011;63340;48.404;-4.506;2023-02-28T05:13:50;2.00;;;2.00;;
74810;SDS011;63340;48.404;-4.506;2023-02-28T05:16:19;2.00;;;2.00;;
74810;SDS011;63340;48.404;-4.506;2023-02-28T05:18:49;2.00;;;2.00;;
74810;SDS011;63340;48.404;-4.506;2023-02-28T05:24:02;0.50;;;0.50;;
74810;SDS011;63340;48.404;-4.506;2023-02-28T05:27:06;1.00;;;1.00;;
74810;SDS011;63340;48.404;-4.506;2023-02-28T05:29:41;2.00;;;2.00;;
74810;SDS011;63340;48.404;-4.506;2023-02-28T05:32:18;2.00;;;2.00;;
74810;SDS011;63340;48.404;-4.506;2023-02-28T05:35:01;2.00;;;2.00;;
74810;SDS011;63340;48.404;-4.506;2023-02-28T05:37:37;2.00;;;2.00;;
74810;SDS011;63340;48.404;-4.506;2023-02-28T05:40:23;1.00;;;1.00;;
74810;SDS011;63340;48.404;-4.506;2023-02-28T05:43:26;1.75;;;1.75;;
74810;SDS011;63340;48.404;-4.506;2023-02-28T05:46:29;1.00;;;1.00;;
74810;SDS011;63340;48.404;-4.506;2023-02-28T05:49:42;1.00;;;1.00;;
74810;SDS011;63340;48.404;-4.506;2023-02-28T05:52:11;3.00;;;3.00;;
74810;SDS011;63340;48.404;-4.506;2023-02-28T05:54:39;2.75;;;2.75;;
74810;SDS011;63340;48.404;-4.506;2023-02-28T05:57:17;3.00;;;2.00;;
74810;SDS011;63340;48.404;-4.506;2023-02-28T05:59:45;3.00;;;3.00;;
74810;SDS011;63340;48.404;-4.506;2023-02-28T06:02:17;2.25;;;2.00;;
74810;SDS011;63340;48.404;-4.506;2023-02-28T06:04:43;3.00;;;3.00;;
74810;SDS011;63340;48.404;-4.506;2023-02-28T06:07:09;2.25;;;2.25;;
74810;SDS011;63340;48.404;-4.506;2023-02-28T06:09:38;2.25;;;1.50;;
74810;SDS011;63340;48.404;-4.506;2023-02-28T06:12:09;2.00;;;2.00;;
74810;SDS011;63340;48.404;-4.506;2023-02-28T06:14:43;3.00;;;3.00;;
74810;SDS011;63340;48.404;-4.506;2023-02-28T06:20:08;3.00;;;3.00;;
74810;SDS011;63340;48.404;-4.506;2023-02-28T06:22:38;3.75;;;3.00;;
74810;SDS011;63340;48.404;-4.506;2023-02-28T06:25:05;2.25;;;2.25;;
74810;SDS011;63340;48.404;-4.506;2023-02-28T06:27:32;2.00;;;2.00;;
74810;SDS011;63340;48.404;-4.506;2023-02-28T06:29:58;2.00;;;1.75;;
74810;SDS011;63340;48.404;-4.506;2023-02-28T06:32:26;3.25;;;3.25;;
74810;SDS011;63340;48.404;-4.506;2023-02-28T06:35:07;2.50;;;2.50;;
74810;SDS011;63340;48.404;-4.506;2023-02-28T06:37:36;2.75;;;2.75;;
74810;SDS011;63340;48.404;-4.506;2023-02-28T06:40:02;3.00;;;3.00;;
74810;SDS011;63340;48.404;-4.506;2023-02-28T06:42:44;2.50;;;2.50;;
74810;SDS011;63340;48.404;-4.506;2023-02-28T06:45:10;3.00;;;2.50;;
74810;SDS011;63340;48.404;-4.506;2023-02-28T06:51:16;3.50;;;3.00;;
74810;SDS011;63340;48.404;-4.506;2023-02-28T06:54:03;4.25;;;4.00;;
74810;SDS011;63340;48.404;-4.506;2023-02-28T06:56:39;4.00;;;4.00;;
74810;SDS011;63340;48.404;-4.506;2023-02-28T06:59:10;3.75;;;3.25;;
74810;SDS011;63340;48.404;-4.506;2023-02-28T07:01:44;4.00;;;4.00;;
74810;SDS011;63340;48.404;-4.506;2023-02-28T07:04:15;4.50;;;4.50;;
74810;SDS011;63340;48.404;-4.506;2023-02-28T07:07:02;6.00;;;6.00;;
74810;SDS011;63340;48.404;-4.506;2023-02-28T07:09:33;6.50;;;6.25;;
74810;SDS011;63340;48.404;-4.506;2023-02-28T07:11:59;8.75;;;6.00;;
74810;SDS011;63340;48.404;-4.506;2023-02-28T07:14:36;6.00;;;6.00;;
74810;SDS011;63340;48.404;-4.506;2023-02-28T07:17:07;6.00;;;6.00;;
74810;SDS011;63340;48.404;-4.506;2023-02-28T07:19:39;6.75;;;6.75;;
74810;SDS011;63340;48.404;-4.506;2023-02-28T07:22:06;5.00;;;5.00;;
74810;SDS011;63340;48.404;-4.506;2023-02-28T07:24:38;9.25;;;9.25;;
74810;SDS011;63340;48.404;-4.506;2023-02-28T07:27:21;10.75;;;10.25;;
74810;SDS011;63340;48.404;-4.506;2023-02-28T07:29:50;8.75;;;8.25;;
74810;SDS011;63340;48.404;-4.506;2023-02-28T07:32:17;8.25;;;7.25;;
74810;SDS011;63340;48.404;-4.506;2023-02-28T07:34:43;12.00;;;10.50;;
74810;SDS011;63340;48.404;-4.506;2023-02-28T07:37:09;8.00;;;8.00;;
74810;SDS011;63340;48.404;-4.506;2023-02-28T07:39:35;8.00;;;8.00;;
74810;SDS011;63340;48.404;-4.506;2023-02-28T07:42:03;8.75;;;7.00;;
74810;SDS011;63340;48.404;-4.506;2023-02-28T07:44:29;11.00;;;10.25;;
74810;SDS011;63340;48.404;-4.506;2023-02-28T07:46:55;10.00;;;10.00;;
74810;SDS011;63340;48.404;-4.506;2023-02-28T07:49:20;13.25;;;12.25;;
74810;SDS011;63340;48.404;-4.506;2023-02-28T07:51:46;9.00;;;9.00;;
74810;SDS011;63340;48.404;-4.506;2023-02-28T07:54:11;10.50;;;10.00;;
74810;SDS011;63340;48.404;-4.506;2023-02-28T07:56:37;13.00;;;12.75;;
74810;SDS011;63340;48.404;-4.506;2023-02-28T07:59:02;13.50;;;12.25;;
74810;SDS011;63340;48.404;-4.506;2023-02-28T08:01:27;16.00;;;13.75;;
74810;SDS011;63340;48.404;-4.506;2023-02-28T08:03:53;16.25;;;16.25;;
74810;SDS011;63340;48.404;-4.506;2023-02-28T08:06:21;14.75;;;14.75;;
74810;SDS011;63340;48.404;-4.506;2023-02-28T08:08:47;12.50;;;12.50;;
74810;SDS011;63340;48.404;-4.506;2023-02-28T08:11:13;15.75;;;12.00;;
74810;SDS011;63340;48.404;-4.506;2023-02-28T08:13:39;12.50;;;12.50;;
74810;SDS011;63340;48.404;-4.506;2023-02-28T08:16:05;11.75;;;11.75;;
74810;SDS011;63340;48.404;-4.506;2023-02-28T08:18:30;11.75;;;11.00;;
74810;SDS011;63340;48.404;-4.506;2023-02-28T08:20:57;12.75;;;10.50;;
74810;SDS011;63340;48.404;-4.506;2023-02-28T08:23:24;13.75;;;13.75;;
74810;SDS011;63340;48.404;-4.506;2023-02-28T08:25:53;18.75;;;15.25;;
74810;SDS011;63340;48.404;-4.506;2023-02-28T08:28:19;18.00;;;17.25;;
74810;SDS011;63340;48.404;-4.506;2023-02-28T08:30:45;12.00;;;12.00;;
74810;SDS011;63340;48.404;-4.506;2023-02-28T08:33:10;18.50;;;15.00;;
74810;SDS011;63340;48.404;-4.506;2023-02-28T08:35:36;18.50;;;15.00;;
74810;SDS011;63340;48.404;-4.506;2023-02-28T08:38:02;14.50;;;14.00;;
74810;SDS011;63340;48.404;-4.506;2023-02-28T08:40:27;15.25;;;13.50;;
74810;SDS011;63340;48.404;-4.506;2023-02-28T08:42:53;18.75;;;18.00;;
74810;SDS011;63340;48.404;-4.506;2023-02-28T08:45:18;15.25;;;14.00;;
74810;SDS011;63340;48.404;-4.506;2023-02-28T08:47:43;18.50;;;16.25;;
74810;SDS011;63340;48.404;-4.506;2023-02-28T08:50:09;19.50;;;17.75;;
74810;SDS011;63340;48.404;-4.506;2023-02-28T08:52:35;13.75;;;13.75;;
74810;SDS011;63340;48.404;-4.506;2023-02-28T08:55:00;17.75;;;17.00;;
74810;SDS011;63340;48.404;-4.506;2023-02-28T08:57:26;21.25;;;19.00;;
74810;SDS011;63340;48.404;-4.506;2023-02-28T08:59:52;19.25;;;19.25;;
74810;SDS011;63340;48.404;-4.506;2023-02-28T09:02:17;16.75;;;15.00;;
74810;SDS011;63340;48.404;-4.506;2023-02-28T09:04:43;15.00;;;15.00;;
74810;SDS011;63340;48.404;-4.506;2023-02-28T09:07:10;17.50;;;15.50;;
74810;SDS011;63340;48.404;-4.506;2023-02-28T09:09:36;19.25;;;16.75;;
74810;SDS011;63340;48.404;-4.506;2023-02-28T09:12:02;17.75;;;16.50;;
74810;SDS011;63340;48.404;-4.506;2023-02-28T09:14:27;23.25;;;21.75;;
74810;SDS011;63340;48.404;-4.506;2023-02-28T09:16:53;21.50;;;21.50;;
74810;SDS011;63340;48.404;-4.506;2023-02-28T09:19:19;17.75;;;17.75;;
74810;SDS011;63340;48.404;-4.506;2023-02-28T09:21:45;23.50;;;22.25;;
74810;SDS011;63340;48.404;-4.506;2023-02-28T09:24:10;16.00;;;15.25;;
74810;SDS011;63340;48.404;-4.506;2023-02-28T09:26:39;20.25;;;19.00;;
74810;SDS011;63340;48.404;-4.506;2023-02-28T09:29:05;19.00;;;17.25;;
74810;SDS011;63340;48.404;-4.506;2023-02-28T09:31:31;22.75;;;21.75;;
74810;SDS011;63340;48.404;-4.506;2023-02-28T09:33:57;22.00;;;21.00;;
74810;SDS011;63340;48.404;-4.506;2023-02-28T09:36:24;14.50;;;14.50;;
74810;SDS011;63340;48.404;-4.506;2023-02-28T09:38:51;21.75;;;21.75;;
74810;SDS011;63340;48.404;-4.506;2023-02-28T09:43:49;19.50;;;17.75;;
74810;SDS011;63340;48.404;-4.506;2023-02-28T09:46:24;20.00;;;20.00;;
74810;SDS011;63340;48.404;-4.506;2023-02-28T09:48:54;17.75;;;17.75;;
74810;SDS011;63340;48.404;-4.506;2023-02-28T09:54:15;18.50;;;17.50;;
74810;SDS011;63340;48.404;-4.506;2023-02-28T09:56:44;21.50;;;21.25;;
74810;SDS011;63340;48.404;-4.506;2023-02-28T10:02:33;14.25;;;14.25;;
74810;SDS011;63340;48.404;-4.506;2023-02-28T10:13:13;19.33;;;19.33;;
74810;SDS011;63340;48.404;-4.506;2023-02-28T10:15:42;23.75;;;21.50;;
74810;SDS011;63340;48.404;-4.506;2023-02-28T10:18:13;21.00;;;21.00;;
74810;SDS011;63340;48.404;-4.506;2023-02-28T10:20:45;22.25;;;22.00;;
74810;SDS011;63340;48.404;-4.506;2023-02-28T10:23:14;25.25;;;23.75;;
74810;SDS011;63340;48.404;-4.506;2023-02-28T10:25:51;24.75;;;24.50;;
74810;SDS011;63340;48.404;-4.506;2023-02-28T10:28:20;22.50;;;22.00;;
74810;SDS011;63340;48.404;-4.506;2023-02-28T10:30:47;22.50;;;21.00;;
74810;SDS011;63340;48.404;-4.506;2023-02-28T10:33:25;22.25;;;22.25;;
74810;SDS011;63340;48.404;-4.506;2023-02-28T10:36:02;22.50;;;20.50;;
74810;SDS011;63340;48.404;-4.506;2023-02-28T10:43:38;22.00;;;20.25;;
74810;SDS011;63340;48.404;-4.506;2023-02-28T10:48:34;19.75;;;19.00;;
74810;SDS011;63340;48.404;-4.506;2023-02-28T10:51:03;20.75;;;20.00;;
74810;SDS011;63340;48.404;-4.506;2023-02-28T10:58:25;25.50;;;23.75;;
74810;SDS011;63340;48.404;-4.506;2023-02-28T11:00:56;25.50;;;23.50;;
74810;SDS011;63340;48.404;-4.506;2023-02-28T11:03:24;22.00;;;21.50;;
74810;SDS011;63340;48.404;-4.506;2023-02-28T11:05:55;21.75;;;21.00;;
74810;SDS011;63340;48.404;-4.506;2023-02-28T11:08:22;19.25;;;18.50;;
74810;SDS011;63340;48.404;-4.506;2023-02-28T11:10:59;18.75;;;18.75;;
74810;SDS011;63340;48.404;-4.506;2023-02-28T11:13:32;22.75;;;21.00;;
74810;SDS011;63340;48.404;-4.506;2023-02-28T11:19:31;20.25;;;20.00;;
74810;SDS011;63340;48.404;-4.506;2023-02-28T11:22:02;18.50;;;17.75;;
74810;SDS011;63340;48.404;-4.506;2023-02-28T11:28:04;19.75;;;19.25;;
74810;SDS011;63340;48.404;-4.506;2023-02-28T11:31:01;16.25;;;15.50;;
74810;SDS011;63340;48.404;-4.506;2023-02-28T11:33:31;20.50;;;19.75;;
74810;SDS011;63340;48.404;-4.506;2023-02-28T11:36:22;22.75;;;19.50;;
74810;SDS011;63340;48.404;-4.506;2023-02-28T11:38:59;16.00;;;16.00;;
74810;SDS011;63340;48.404;-4.506;2023-02-28T11:44:45;13.00;;;13.00;;
74810;SDS011;63340;48.404;-4.506;2023-02-28T12:13:29;14.25;;;13.00;;
74810;SDS011;63340;48.404;-4.506;2023-02-28T12:24:44;7.00;;;6.50;;
74810;SDS011;63340;48.404;-4.506;2023-02-28T12:27:31;5.00;;;5.00;;
74810;SDS011;63340;48.404;-4.506;2023-02-28T12:30:05;6.00;;;6.00;;
74810;SDS011;63340;48.404;-4.506;2023-02-28T12:32:44;6.00;;;6.00;;
74810;SDS011;63340;48.404;-4.506;2023-02-28T12:36:05;5.00;;;5.00;;
74810;SDS011;63340;48.404;-4.506;2023-02-28T12:38:21;5.25;;;5.00;;
74810;SDS011;63340;48.404;-4.506;2023-02-28T12:40:51;7.00;;;7.00;;
74810;SDS011;63340;48.404;-4.506;2023-02-28T12:43:51;5.00;;;5.00;;
74810;SDS011;63340;48.404;-4.506;2023-02-28T12:46:25;5.00;;;5.00;;
74810;SDS011;63340;48.404;-4.506;2023-02-28T12:51:39;5.67;;;4.00;;
74810;SDS011;63340;48.404;-4.506;2023-02-28T12:59:57;3.00;;;2.50;;
74810;SDS011;63340;48.404;-4.506;2023-02-28T13:10:40;2.00;;;2.00;;
74810;SDS011;63340;48.404;-4.506;2023-02-28T13:13:19;4.00;;;2.50;;
74810;SDS011;63340;48.404;-4.506;2023-02-28T13:16:01;3.00;;;3.00;;
74810;SDS011;63340;48.404;-4.506;2023-02-28T13:18:28;2.75;;;2.75;;
74810;SDS011;63340;48.404;-4.506;2023-02-28T13:21:09;2.50;;;2.50;;
74810;SDS011;63340;48.404;-4.506;2023-02-28T13:28:57;4.75;;;2.25;;
74810;SDS011;63340;48.404;-4.506;2023-02-28T13:31:25;4.00;;;2.75;;
74810;SDS011;63340;48.404;-4.506;2023-02-28T13:44:02;5.75;;;3.50;;
74810;SDS011;63340;48.404;-4.506;2023-02-28T13:46:31;3.75;;;2.00;;
74810;SDS011;63340;48.404;-4.506;2023-02-28T13:57:28;3.25;;;2.00;;
74810;SDS011;63340;48.404;-4.506;2023-02-28T14:00:16;2.75;;;2.75;;
74810;SDS011;63340;48.404;-4.506;2023-02-28T14:02:52;2.00;;;2.00;;
74810;SDS011;63340;48.404;-4.506;2023-02-28T14:05:33;1.00;;;1.00;;
74810;SDS011;63340;48.404;-4.506;2023-02-28T14:08:03;3.00;;;2.00;;
74810;SDS011;63340;48.404;-4.506;2023-02-28T14:10:38;2.25;;;2.00;;
74810;SDS011;63340;48.404;-4.506;2023-02-28T14:13:36;2.00;;;2.00;;
74810;SDS011;63340;48.404;-4.506;2023-02-28T14:16:54;3.00;;;2.25;;
74810;SDS011;63340;48.404;-4.506;2023-02-28T14:19:11;1.50;;;1.00;;
74810;SDS011;63340;48.404;-4.506;2023-02-28T14:36:14;1.00;;;1.00;;
74810;SDS011;63340;48.404;-4.506;2023-02-28T14:38:57;2.25;;;2.00;;
74810;SDS011;63340;48.404;-4.506;2023-02-28T14:41:30;3.25;;;2.25;;
74810;SDS011;63340;48.404;-4.506;2023-02-28T14:44:02;1.00;;;1.00;;
74810;SDS011;63340;48.404;-4.506;2023-02-28T14:46:38;2.00;;;2.00;;
74810;SDS011;63340;48.404;-4.506;2023-02-28T14:49:06;2.00;;;2.00;;
74810;SDS011;63340;48.404;-4.506;2023-02-28T14:51:36;2.25;;;1.75;;
74810;SDS011;63340;48.404;-4.506;2023-02-28T14:54:02;1.75;;;1.75;;
74810;SDS011;63340;48.404;-4.506;2023-02-28T14:56:36;1.00;;;1.00;;
74810;SDS011;63340;48.404;-4.506;2023-02-28T14:59:03;1.50;;;1.00;;
74810;SDS011;63340;48.404;-4.506;2023-02-28T15:01:30;2.25;;;1.00;;
74810;SDS011;63340;48.404;-4.506;2023-02-28T15:04:04;2.75;;;2.00;;
74810;SDS011;63340;48.404;-4.506;2023-02-28T15:06:31;1.50;;;1.50;;
74810;SDS011;63340;48.404;-4.506;2023-02-28T15:09:13;2.50;;;1.25;;
74810;SDS011;63340;48.404;-4.506;2023-02-28T15:11:40;4.50;;;1.50;;
74810;SDS011;63340;48.404;-4.506;2023-02-28T15:14:06;2.75;;;2.75;;
74810;SDS011;63340;48.404;-4.506;2023-02-28T15:16:36;2.00;;;1.00;;
74810;SDS011;63340;48.404;-4.506;2023-02-28T15:19:06;2.00;;;2.00;;
74810;SDS011;63340;48.404;-4.506;2023-02-28T15:21:48;2.00;;;2.00;;
74810;SDS011;63340;48.404;-4.506;2023-02-28T15:24:18;5.00;;;3.00;;
74810;SDS011;63340;48.404;-4.506;2023-02-28T15:26:51;2.25;;;2.25;;
74810;SDS011;63340;48.404;-4.506;2023-02-28T15:29:21;2.25;;;2.00;;
74810;SDS011;63340;48.404;-4.506;2023-02-28T15:31:50;1.50;;;1.50;;
74810;SDS011;63340;48.404;-4.506;2023-02-28T15:34:22;1.25;;;1.00;;
74810;SDS011;63340;48.404;-4.506;2023-02-28T15:36:52;2.00;;;1.00;;
74810;SDS011;63340;48.404;-4.506;2023-02-28T15:39:19;1.00;;;1.00;;
74810;SDS011;63340;48.404;-4.506;2023-02-28T15:41:47;4.00;;;2.00;;
74810;SDS011;63340;48.404;-4.506;2023-02-28T15:47:02;2.50;;;1.00;;
74810;SDS011;63340;48.404;-4.506;2023-02-28T15:50:06;1.00;;;1.00;;
74810;SDS011;63340;48.404;-4.506;2023-02-28T15:52:42;1.75;;;1.75;;
74810;SDS011;63340;48.404;-4.506;2023-02-28T15:58:08;1.00;;;1.00;;
74810;SDS011;63340;48.404;-4.506;2023-02-28T16:00:38;1.00;;;1.00;;
74810;SDS011;63340;48.404;-4.506;2023-02-28T16:08:46;1.00;;;1.00;;
74810;SDS011;63340;48.404;-4.506;2023-02-28T16:11:13;1.00;;;1.00;;
74810;SDS011;63340;48.404;-4.506;2023-02-28T16:13:39;2.00;;;1.00;;
74810;SDS011;63340;48.404;-4.506;2023-02-28T16:16:05;0.25;;;0.00;;
74810;SDS011;63340;48.404;-4.506;2023-02-28T16:18:30;0.00;;;0.00;;
74810;SDS011;63340;48.404;-4.506;2023-02-28T16:20:56;1.50;;;1.00;;
74810;SDS011;63340;48.404;-4.506;2023-02-28T16:23:21;0.00;;;0.00;;
74810;SDS011;63340;48.404;-4.506;2023-02-28T16:25:47;3.00;;;2.00;;
74810;SDS011;63340;48.404;-4.506;2023-02-28T16:28:15;1.75;;;0.50;;
74810;SDS011;63340;48.404;-4.506;2023-02-28T16:30:45;3.25;;;2.00;;
74810;SDS011;63340;48.404;-4.506;2023-02-28T16:33:11;0.75;;;0.75;;
74810;SDS011;63340;48.404;-4.506;2023-02-28T16:35:36;3.00;;;1.25;;
74810;SDS011;63340;48.404;-4.506;2023-02-28T16:38:02;1.25;;;1.25;;
74810;SDS011;63340;48.404;-4.506;2023-02-28T16:40:27;2.00;;;2.00;;
74810;SDS011;63340;48.404;-4.506;2023-02-28T16:42:59;1.75;;;0.25;;
74810;SDS011;63340;48.404;-4.506;2023-02-28T16:45:29;1.00;;;1.00;;
74810;SDS011;63340;48.404;-4.506;2023-02-28T16:47:54;2.00;;;1.75;;
74810;SDS011;63340;48.404;-4.506;2023-02-28T16:50:21;2.25;;;2.25;;
74810;SDS011;63340;48.404;-4.506;2023-02-28T16:52:51;1.50;;;1.00;;
74810;SDS011;63340;48.404;-4.506;2023-02-28T16:55:17;4.00;;;3.00;;
74810;SDS011;63340;48.404;-4.506;2023-02-28T16:57:43;3.00;;;3.00;;
74810;SDS011;63340;48.404;-4.506;2023-02-28T17:00:14;1.50;;;1.50;;
74810;SDS011;63340;48.404;-4.506;2023-02-28T17:02:40;1.50;;;1.50;;
74810;SDS011;63340;48.404;-4.506;2023-02-28T17:05:05;1.00;;;1.00;;
74810;SDS011;63340;48.404;-4.506;2023-02-28T17:07:31;1.50;;;1.00;;
74810;SDS011;63340;48.404;-4.506;2023-02-28T17:09:57;5.00;;;2.00;;
74810;SDS011;63340;48.404;-4.506;2023-02-28T17:12:23;1.00;;;1.00;;
74810;SDS011;63340;48.404;-4.506;2023-02-28T17:14:48;2.00;;;2.00;;
74810;SDS011;63340;48.404;-4.506;2023-02-28T17:17:18;2.75;;;2.75;;
74810;SDS011;63340;48.404;-4.506;2023-02-28T17:19:46;2.75;;;2.25;;
74810;SDS011;63340;48.404;-4.506;2023-02-28T17:22:11;3.25;;;2.00;;
74810;SDS011;63340;48.404;-4.506;2023-02-28T17:24:37;5.00;;;3.00;;
74810;SDS011;63340;48.404;-4.506;2023-02-28T17:27:03;3.75;;;3.00;;
74810;SDS011;63340;48.404;-4.506;2023-02-28T17:29:29;5.00;;;4.00;;
74810;SDS011;63340;48.404;-4.506;2023-02-28T17:31:54;4.75;;;3.00;;
74810;SDS011;63340;48.404;-4.506;2023-02-28T17:34:20;4.25;;;3.00;;
74810;SDS011;63340;48.404;-4.506;2023-02-28T17:36:47;3.00;;;3.00;;
74810;SDS011;63340;48.404;-4.506;2023-02-28T17:39:14;2.00;;;2.00;;
74810;SDS011;63340;48.404;-4.506;2023-02-28T17:41:44;2.00;;;2.00;;
74810;SDS011;63340;48.404;-4.506;2023-02-28T17:44:10;2.75;;;2.75;;
74810;SDS011;63340;48.404;-4.506;2023-02-28T17:46:44;2.50;;;2.50;;
74810;SDS011;63340;48.404;-4.506;2023-02-28T17:49:17;3.50;;;2.00;;
74810;SDS011;63340;48.404;-4.506;2023-02-28T17:51:43;0.75;;;0.75;;
74810;SDS011;63340;48.404;-4.506;2023-02-28T17:54:13;2.25;;;2.00;;
74810;SDS011;63340;48.404;-4.506;2023-02-28T17:56:39;2.50;;;2.00;;
74810;SDS011;63340;48.404;-4.506;2023-02-28T17:59:09;2.25;;;1.25;;
74810;SDS011;63340;48.404;-4.506;2023-02-28T18:01:37;2.50;;;2.50;;